Flight Track Log - Related Links

Times and Time Zones

All times are in EDT time to prevent confusion due to time zone crossing. See the ASQ5181 flight status page for this flight to view local times or setup timezone preferences in your user account.

Time Position Orientation Groundspeed Altitude Reporting Facility
EDT Latitude Longitude Course Direction KTS MPH feet Rate Location/Type
Sat 10:09:55 AM 44.8667 -93.1833 115° Southeast 159 183 2,900  Level Minneapolis TRACON
Sat 10:10:55 AM 44.8500 -93.1333 115° Southeast 195 224 5,300 2,292 Climbing Minneapolis TRACON
Sat 10:12:19 AM 44.7939 -93.0083 122° Southeast 278 320 8,400 2,359 Climbing Minneapolis Center
Sat 10:13:20 AM 44.7467 -92.9153 126° Southeast 293 337 11,000 2,390 Climbing Minneapolis Center
Sat 10:14:22 AM 44.6947 -92.8147 126° Southeast 317 365 13,300 1,756 Climbing Minneapolis Center
Sat 10:15:23 AM 44.6364 -92.7022 126° Southeast 365 420 14,600 1,707 Climbing Minneapolis Center
Sat 10:16:25 AM 44.5733 -92.5794 126° Southeast 385 443 16,800 2,129 Climbing Minneapolis Center
Sat 10:17:27 AM 44.4956 -92.4325 127° Southeast 390 449 19,000 1,951 Climbing Minneapolis Center
Sat 10:18:28 AM 44.4264 -92.3078 128° Southeast 403 464 20,800 1,512 Climbing Minneapolis Center
Sat 10:19:30 AM 44.3503 -92.1850 131° Southeast 416 479 22,100 1,171 Climbing Minneapolis Center
Sat 10:20:31 AM 44.2658 -92.1203 151° Southeast 430 495 23,200 1,220 Climbing Minneapolis Center
Sat 10:21:33 AM 44.1364 -92.0181 150° Southeast 444 511 24,600 871 Climbing Minneapolis Center
Sat 10:22:35 AM 44.0244 -91.9325 151° Southeast 457 526 25,000 195 Climbing Minneapolis Center
Sat 10:23:36 AM 43.9047 -91.8397 151° Southeast 487 560 25,000  Level Minneapolis Center
Sat 10:24:38 AM 43.7711 -91.7325 150° Southeast 519 597 25,000  Level Minneapolis Center
Sat 10:25:39 AM 43.6736 -91.6592 151° Southeast 508 585 25,000  Level Minneapolis Center
Sat 10:26:41 AM 43.5275 -91.5500 152° Southeast 501 577 25,000  Level Minneapolis Center
Sat 10:27:43 AM 43.3808 -91.4381 151° Southeast 504 580 25,000  Level Minneapolis Center
Sat 10:28:45 AM 43.2578 -91.3439 151° Southeast 506 582 25,000  Level Minneapolis Center
Sat 10:29:25 AM 43.1828 -91.2903 152° Southeast 507 583 25,000  Level Chicago Center
Sat 10:30:27 AM 43.0572 -91.1964 151° Southeast 513 590 25,000  Level Chicago Center
Sat 10:31:28 AM 42.9353 -91.1031 151° Southeast 505 581 25,000  Level Chicago Center
Sat 10:32:30 AM 42.8139 -91.0122 151° Southeast 498 573 25,000  Level Chicago Center
Sat 10:33:31 AM 42.6722 -90.9075 151° Southeast 485 558 25,000  Level Chicago Center
Sat 10:34:33 AM 42.5550 -90.8225 152° Southeast 480 552 25,000  Level Chicago Center
Sat 10:35:35 AM 42.4406 -90.7386 152° Southeast 473 544 25,000  Level Chicago Center
Sat 10:36:36 AM 42.3186 -90.6750 159° South 477 549 25,000  Level Chicago Center
Sat 10:37:38 AM 42.1917 -90.6219 163° South 480 552 25,000  Level Chicago Center
Sat 10:38:40 AM 42.0594 -90.5669 163° South 489 563 25,000  Level Chicago Center
Sat 10:39:41 AM 41.9050 -90.5014 162° South 495 570 25,000  Level Chicago Center
Sat 10:40:43 AM 41.7717 -90.4483 163° South 501 577 25,000  Level Chicago Center
Sat 10:41:44 AM 41.6394 -90.3953 163° South 497 572 25,000  Level Chicago Center
Sat 10:42:46 AM 41.5069 -90.3397 163° South 498 573 25,000  Level Chicago Center
Sat 10:43:48 AM 41.3736 -90.2856 163° South 501 577 25,000  Level Chicago Center
Sat 10:44:49 AM 41.2392 -90.2317 163° South 503 579 25,000  Level Chicago Center
Sat 10:45:51 AM 41.1047 -90.1775 163° South 505 581 25,000  Level Chicago Center
Sat 10:46:53 AM 40.9472 -90.1142 163° South 505 581 25,000  Level Chicago Center
Sat 10:47:54 AM 40.8128 -90.0608 163° South 509 586 25,000  Level Chicago Center
Sat 10:48:56 AM 40.6758 -90.0067 163° South 516 594 25,000  Level Chicago Center
Sat 10:49:58 AM 40.5414 -89.9519 163° South 514 592 25,000  Level Chicago Center
Sat 10:50:59 AM 40.4025 -89.9003 164° South 520 598 25,000  Level Chicago Center
Sat 10:52:01 AM 40.2658 -89.9556 197° South 527 606 25,000  Level Chicago Center
Sat 10:53:03 AM 40.1211 -90.0897 215° Southwest 529 609 25,000 -231 Level Chicago Center
Sat 10:54:11 AM 40.0011 -90.2047 216° Southwest 534 615 24,500 -554 Descending Kansas City Center
Sat 10:55:13 AM 39.8808 -90.3153 215° Southwest 531 611 23,800 -1,790 Descending Kansas City Center
Sat 10:56:15 AM 39.7453 -90.4397 215° Southwest 503 579 20,800 -2,390 Descending Kansas City Center
Sat 10:57:16 AM 39.6497 -90.5278 215° Southwest 475 547 18,900 -1,707 Descending Kansas City Center
Sat 10:58:18 AM 39.5469 -90.6217 215° Southwest 458 527 17,300 -1,984 Descending Kansas City Center
Sat 10:59:20 AM 39.4292 -90.7292 215° Southwest 440 506 14,800 -2,371 Descending Kansas City Center
Sat 11:00:22 AM 39.3397 -90.8108 215° Southwest 408 470 12,400 -1,984 Descending Kansas City Center
Sat 11:01:24 AM 39.2536 -90.8236 187° South 330 380 10,700 -1,452 Descending Kansas City Center
Sat 11:02:26 AM 39.1775 -90.7778 155° Southeast 309 356 9,400 -1,258 Descending Kansas City Center
Sat 11:03:28 AM 39.1064 -90.7317 153° Southeast 294 338 8,100 -1,258 Descending Kansas City Center
Sat 11:04:30 AM 39.0367 -90.6886 154° Southeast 284 327 6,800 -1,355 Descending Kansas City Center
Sat 11:05:32 AM 38.9536 -90.6369 154° Southeast 279 321 5,300 -1,016 Descending Kansas City Center
Sat 11:06:34 AM 38.8861 -90.5936 153° Southeast 274 315 4,700 -774 Descending Kansas City Center
Sat 11:07:36 AM 38.8353 -90.5422 142° Southeast 246 283 3,700 -1,161 Descending Kansas City Center
Sat 11:08:38 AM 38.8025 -90.4775 123° Southeast 226 260 2,300 -1,065 Descending Kansas City Center
Sat 11:09:40 AM 38.7783 -90.4289 123° Southeast 184 212 1,500 -726 Descending Kansas City Center
Sat 11:10:42 AM 38.7594 -90.3883 121° Southeast 148 170 800 -677 Descending Kansas City Center
Sat 11:12:00 AM 38.7487 -90.3700 270° West  Level Estimated
Sat 11:19:00 AM 38.7487 -90.3700 256° West  Level Estimated

Login

Don't have an account? Register now (free) for customized features, flight alerts, and more!